sensor_id;sensor_type;location;lat;lon;timestamp;temperature;humidity
47336;DHT22;33068;51.990;5.926;2023-05-29T00:01:35;11.00;99.90
47336;DHT22;33068;51.990;5.926;2023-05-29T00:04:03;11.00;99.90
47336;DHT22;33068;51.990;5.926;2023-05-29T00:06:31;10.90;99.90
47336;DHT22;33068;51.990;5.926;2023-05-29T00:09:01;10.90;99.90
47336;DHT22;33068;51.990;5.926;2023-05-29T00:11:29;10.90;99.90
47336;DHT22;33068;51.990;5.926;2023-05-29T00:13:56;10.90;99.90
47336;DHT22;33068;51.990;5.926;2023-05-29T00:16:23;10.80;99.90
47336;DHT22;33068;51.990;5.926;2023-05-29T00:18:51;10.70;99.90
47336;DHT22;33068;51.990;5.926;2023-05-29T00:21:19;10.80;99.90
47336;DHT22;33068;51.990;5.926;2023-05-29T00:23:47;10.80;99.90
47336;DHT22;33068;51.990;5.926;2023-05-29T00:26:14;10.70;99.90
47336;DHT22;33068;51.990;5.926;2023-05-29T00:28:46;10.70;99.90
47336;DHT22;33068;51.990;5.926;2023-05-29T00:31:13;10.60;99.90
47336;DHT22;33068;51.990;5.926;2023-05-29T00:33:40;10.60;99.90
47336;DHT22;33068;51.990;5.926;2023-05-29T00:36:08;10.60;99.90
47336;DHT22;33068;51.990;5.926;2023-05-29T00:38:36;10.50;99.90
47336;DHT22;33068;51.990;5.926;2023-05-29T00:41:03;10.50;99.90
47336;DHT22;33068;51.990;5.926;2023-05-29T00:43:30;10.50;99.90
47336;DHT22;33068;51.990;5.926;2023-05-29T00:45:59;10.40;99.90
47336;DHT22;33068;51.990;5.926;2023-05-29T00:48:26;10.40;99.90
47336;DHT22;33068;51.990;5.926;2023-05-29T00:50:53;10.30;99.90
47336;DHT22;33068;51.990;5.926;2023-05-29T00:53:21;10.30;99.90
47336;DHT22;33068;51.990;5.926;2023-05-29T00:55:48;10.30;99.90
47336;DHT22;33068;51.990;5.926;2023-05-29T00:58:15;10.30;99.90
47336;DHT22;33068;51.990;5.926;2023-05-29T01:00:43;10.20;99.90
47336;DHT22;33068;51.990;5.926;2023-05-29T01:03:12;10.30;99.90
47336;DHT22;33068;51.990;5.926;2023-05-29T01:05:42;10.20;99.90
47336;DHT22;33068;51.990;5.926;2023-05-29T01:08:10;10.20;99.90
47336;DHT22;33068;51.990;5.926;2023-05-29T01:10:37;10.10;99.90
47336;DHT22;33068;51.990;5.926;2023-05-29T01:13:08;10.10;99.90
47336;DHT22;33068;51.990;5.926;2023-05-29T01:15:43;10.10;99.90
47336;DHT22;33068;51.990;5.926;2023-05-29T01:18:30;10.10;99.90
47336;DHT22;33068;51.990;5.926;2023-05-29T01:21:05;10.00;99.90
47336;DHT22;33068;51.990;5.926;2023-05-29T01:23:46;10.00;99.90
47336;DHT22;33068;51.990;5.926;2023-05-29T01:29:14;9.90;99.90
47336;DHT22;33068;51.990;5.926;2023-05-29T01:31:43;10.00;99.90
47336;DHT22;33068;51.990;5.926;2023-05-29T01:34:12;9.90;99.90
47336;DHT22;33068;51.990;5.926;2023-05-29T01:36:43;9.90;99.90
47336;DHT22;33068;51.990;5.926;2023-05-29T01:39:12;9.90;99.90
47336;DHT22;33068;51.990;5.926;2023-05-29T01:41:40;9.90;99.90
47336;DHT22;33068;51.990;5.926;2023-05-29T01:44:08;9.80;99.90
47336;DHT22;33068;51.990;5.926;2023-05-29T01:46:37;9.80;99.90
47336;DHT22;33068;51.990;5.926;2023-05-29T01:49:07;9.80;99.90
47336;DHT22;33068;51.990;5.926;2023-05-29T01:51:35;9.80;99.90
47336;DHT22;33068;51.990;5.926;2023-05-29T01:54:03;9.70;99.90
47336;DHT22;33068;51.990;5.926;2023-05-29T01:56:31;9.70;99.90
47336;DHT22;33068;51.990;5.926;2023-05-29T01:58:59;9.70;99.90
47336;DHT22;33068;51.990;5.926;2023-05-29T02:01:27;9.60;99.90
47336;DHT22;33068;51.990;5.926;2023-05-29T02:03:56;9.60;99.90
47336;DHT22;33068;51.990;5.926;2023-05-29T02:06:23;9.60;99.90
47336;DHT22;33068;51.990;5.926;2023-05-29T02:08:50;9.60;99.90
47336;DHT22;33068;51.990;5.926;2023-05-29T02:11:18;9.60;99.90
47336;DHT22;33068;51.990;5.926;2023-05-29T02:13:46;9.60;99.90
47336;DHT22;33068;51.990;5.926;2023-05-29T02:16:13;9.50;99.90
47336;DHT22;33068;51.990;5.926;2023-05-29T02:18:40;9.50;99.90
47336;DHT22;33068;51.990;5.926;2023-05-29T02:21:10;9.50;99.90
47336;DHT22;33068;51.990;5.926;2023-05-29T02:23:38;9.50;99.90
47336;DHT22;33068;51.990;5.926;2023-05-29T02:26:05;9.50;99.90
47336;DHT22;33068;51.990;5.926;2023-05-29T02:28:32;9.40;99.90
47336;DHT22;33068;51.990;5.926;2023-05-29T02:30:59;9.40;99.90
47336;DHT22;33068;51.990;5.926;2023-05-29T02:33:26;9.50;99.90
47336;DHT22;33068;51.990;5.926;2023-05-29T02:35:53;9.40;99.90
47336;DHT22;33068;51.990;5.926;2023-05-29T02:38:22;9.40;99.90
47336;DHT22;33068;51.990;5.926;2023-05-29T02:40:49;9.40;99.90
47336;DHT22;33068;51.990;5.926;2023-05-29T02:43:17;9.40;99.90
47336;DHT22;33068;51.990;5.926;2023-05-29T02:45:44;9.40;99.90
47336;DHT22;33068;51.990;5.926;2023-05-29T02:48:11;9.30;99.90
47336;DHT22;33068;51.990;5.926;2023-05-29T02:50:38;9.30;99.90
47336;DHT22;33068;51.990;5.926;2023-05-29T02:53:05;9.30;99.90
47336;DHT22;33068;51.990;5.926;2023-05-29T02:55:33;9.20;99.90
47336;DHT22;33068;51.990;5.926;2023-05-29T02:58:01;9.20;99.90
47336;DHT22;33068;51.990;5.926;2023-05-29T03:00:29;9.30;99.90
47336;DHT22;33068;51.990;5.926;2023-05-29T03:02:57;9.20;99.90
47336;DHT22;33068;51.990;5.926;2023-05-29T03:05:24;9.20;99.90
47336;DHT22;33068;51.990;5.926;2023-05-29T03:07:52;9.20;99.90
47336;DHT22;33068;51.990;5.926;2023-05-29T03:10:19;9.20;99.90
47336;DHT22;33068;51.990;5.926;2023-05-29T03:12:51;9.20;99.90
47336;DHT22;33068;51.990;5.926;2023-05-29T03:15:18;9.10;99.90
47336;DHT22;33068;51.990;5.926;2023-05-29T03:17:46;9.00;99.90
47336;DHT22;33068;51.990;5.926;2023-05-29T03:20:16;9.10;99.90
47336;DHT22;33068;51.990;5.926;2023-05-29T03:22:44;9.00;99.90
47336;DHT22;33068;51.990;5.926;2023-05-29T03:25:11;8.90;99.90
47336;DHT22;33068;51.990;5.926;2023-05-29T03:27:38;8.90;99.90
47336;DHT22;33068;51.990;5.926;2023-05-29T03:30:12;9.00;99.90
47336;DHT22;33068;51.990;5.926;2023-05-29T03:32:39;8.90;99.90
47336;DHT22;33068;51.990;5.926;2023-05-29T03:35:08;8.80;99.90
47336;DHT22;33068;51.990;5.926;2023-05-29T03:37:38;8.80;99.90
47336;DHT22;33068;51.990;5.926;2023-05-29T03:40:06;8.90;99.90
47336;DHT22;33068;51.990;5.926;2023-05-29T03:42:34;8.80;99.90
47336;DHT22;33068;51.990;5.926;2023-05-29T03:45:01;8.80;99.90
47336;DHT22;33068;51.990;5.926;2023-05-29T03:47:31;8.90;99.90
47336;DHT22;33068;51.990;5.926;2023-05-29T03:50:00;8.80;99.90
47336;DHT22;33068;51.990;5.926;2023-05-29T03:52:30;8.80;99.90
47336;DHT22;33068;51.990;5.926;2023-05-29T03:54:58;8.80;99.90
47336;DHT22;33068;51.990;5.926;2023-05-29T03:57:26;8.80;99.90
47336;DHT22;33068;51.990;5.926;2023-05-29T03:59:53;9.10;99.90
47336;DHT22;33068;51.990;5.926;2023-05-29T04:02:22;8.90;99.90
47336;DHT22;33068;51.990;5.926;2023-05-29T04:04:50;8.90;99.90
47336;DHT22;33068;51.990;5.926;2023-05-29T04:07:18;9.00;99.90
47336;DHT22;33068;51.990;5.926;2023-05-29T04:09:47;8.90;99.90
47336;DHT22;33068;51.990;5.926;2023-05-29T04:12:15;8.90;99.90
47336;DHT22;33068;51.990;5.926;2023-05-29T04:14:42;8.90;99.90
47336;DHT22;33068;51.990;5.926;2023-05-29T04:17:09;8.90;99.90
47336;DHT22;33068;51.990;5.926;2023-05-29T04:19:36;9.00;99.90
47336;DHT22;33068;51.990;5.926;2023-05-29T04:22:05;9.00;99.90
47336;DHT22;33068;51.990;5.926;2023-05-29T04:24:32;9.00;99.90
47336;DHT22;33068;51.990;5.926;2023-05-29T04:27:01;9.00;99.90
47336;DHT22;33068;51.990;5.926;2023-05-29T04:29:29;9.00;99.90
47336;DHT22;33068;51.990;5.926;2023-05-29T04:31:56;9.00;99.90
47336;DHT22;33068;51.990;5.926;2023-05-29T04:34:23;9.00;99.90
47336;DHT22;33068;51.990;5.926;2023-05-29T04:36:51;9.00;99.90
47336;DHT22;33068;51.990;5.926;2023-05-29T04:39:19;9.00;99.90
47336;DHT22;33068;51.990;5.926;2023-05-29T04:41:48;9.00;99.90
47336;DHT22;33068;51.990;5.926;2023-05-29T04:44:19;9.10;99.90
47336;DHT22;33068;51.990;5.926;2023-05-29T04:46:50;9.10;99.90
47336;DHT22;33068;51.990;5.926;2023-05-29T04:49:19;9.10;99.90
47336;DHT22;33068;51.990;5.926;2023-05-29T04:51:47;9.20;99.90
47336;DHT22;33068;51.990;5.926;2023-05-29T04:54:21;9.20;99.90
47336;DHT22;33068;51.990;5.926;2023-05-29T04:56:51;9.20;99.90
47336;DHT22;33068;51.990;5.926;2023-05-29T04:59:25;9.30;99.90
47336;DHT22;33068;51.990;5.926;2023-05-29T05:01:53;9.30;99.90
47336;DHT22;33068;51.990;5.926;2023-05-29T05:04:20;9.50;99.90
47336;DHT22;33068;51.990;5.926;2023-05-29T05:06:47;9.50;99.90
47336;DHT22;33068;51.990;5.926;2023-05-29T05:09:14;9.50;99.90
47336;DHT22;33068;51.990;5.926;2023-05-29T05:11:44;9.60;99.90
47336;DHT22;33068;51.990;5.926;2023-05-29T05:14:13;9.70;99.90
47336;DHT22;33068;51.990;5.926;2023-05-29T05:16:40;9.80;99.90
47336;DHT22;33068;51.990;5.926;2023-05-29T05:19:07;9.90;99.90
47336;DHT22;33068;51.990;5.926;2023-05-29T05:21:37;10.00;99.90
47336;DHT22;33068;51.990;5.926;2023-05-29T05:24:04;10.10;99.90
47336;DHT22;33068;51.990;5.926;2023-05-29T05:26:32;10.10;99.90
47336;DHT22;33068;51.990;5.926;2023-05-29T05:29:00;10.10;99.90
47336;DHT22;33068;51.990;5.926;2023-05-29T05:31:29;10.10;99.90
47336;DHT22;33068;51.990;5.926;2023-05-29T05:33:57;10.20;99.90
47336;DHT22;33068;51.990;5.926;2023-05-29T05:36:24;10.40;99.90
47336;DHT22;33068;51.990;5.926;2023-05-29T05:38:57;10.30;99.90
47336;DHT22;33068;51.990;5.926;2023-05-29T05:41:24;10.40;99.90
47336;DHT22;33068;51.990;5.926;2023-05-29T05:43:53;10.40;99.90
47336;DHT22;33068;51.990;5.926;2023-05-29T05:46:39;10.50;99.90
47336;DHT22;33068;51.990;5.926;2023-05-29T05:49:06;10.50;99.90
47336;DHT22;33068;51.990;5.926;2023-05-29T05:51:34;10.50;99.90
47336;DHT22;33068;51.990;5.926;2023-05-29T05:54:02;10.60;99.90
47336;DHT22;33068;51.990;5.926;2023-05-29T05:56:30;10.70;99.90
47336;DHT22;33068;51.990;5.926;2023-05-29T05:58:57;10.80;99.90
47336;DHT22;33068;51.990;5.926;2023-05-29T06:01:25;10.90;99.90
47336;DHT22;33068;51.990;5.926;2023-05-29T06:03:53;11.00;99.90
47336;DHT22;33068;51.990;5.926;2023-05-29T06:06:22;11.20;99.90
47336;DHT22;33068;51.990;5.926;2023-05-29T06:08:49;11.20;99.90
47336;DHT22;33068;51.990;5.926;2023-05-29T06:11:16;11.50;99.90
47336;DHT22;33068;51.990;5.926;2023-05-29T06:13:45;11.40;99.90
47336;DHT22;33068;51.990;5.926;2023-05-29T06:16:19;11.50;99.90
47336;DHT22;33068;51.990;5.926;2023-05-29T06:18:46;11.80;99.90
47336;DHT22;33068;51.990;5.926;2023-05-29T06:21:14;11.80;99.90
47336;DHT22;33068;51.990;5.926;2023-05-29T06:23:51;12.00;99.90
47336;DHT22;33068;51.990;5.926;2023-05-29T06:26:18;12.10;99.90
47336;DHT22;33068;51.990;5.926;2023-05-29T06:28:45;12.10;99.90
47336;DHT22;33068;51.990;5.926;2023-05-29T06:31:12;12.10;99.90
47336;DHT22;33068;51.990;5.926;2023-05-29T06:33:40;12.00;99.90
47336;DHT22;33068;51.990;5.926;2023-05-29T06:36:07;12.10;99.90
47336;DHT22;33068;51.990;5.926;2023-05-29T06:38:36;12.40;99.90
47336;DHT22;33068;51.990;5.926;2023-05-29T06:41:05;12.30;99.90
47336;DHT22;33068;51.990;5.926;2023-05-29T06:43:34;12.40;99.90
47336;DHT22;33068;51.990;5.926;2023-05-29T06:46:02;12.60;99.90
47336;DHT22;33068;51.990;5.926;2023-05-29T06:48:32;12.70;99.90
47336;DHT22;33068;51.990;5.926;2023-05-29T06:50:59;12.80;99.90
47336;DHT22;33068;51.990;5.926;2023-05-29T06:53:37;12.90;99.90
47336;DHT22;33068;51.990;5.926;2023-05-29T06:56:06;12.90;99.90
47336;DHT22;33068;51.990;5.926;2023-05-29T06:58:33;13.20;99.90
47336;DHT22;33068;51.990;5.926;2023-05-29T07:01:01;13.40;99.90
47336;DHT22;33068;51.990;5.926;2023-05-29T07:03:32;13.50;99.90
47336;DHT22;33068;51.990;5.926;2023-05-29T07:06:01;13.70;99.90
47336;DHT22;33068;51.990;5.926;2023-05-29T07:08:29;13.50;99.90
47336;DHT22;33068;51.990;5.926;2023-05-29T07:10:57;13.60;99.90
47336;DHT22;33068;51.990;5.926;2023-05-29T07:13:25;13.80;99.90
47336;DHT22;33068;51.990;5.926;2023-05-29T07:15:52;13.80;99.90
47336;DHT22;33068;51.990;5.926;2023-05-29T07:18:26;13.90;99.90
47336;DHT22;33068;51.990;5.926;2023-05-29T07:20:55;13.90;99.90
47336;DHT22;33068;51.990;5.926;2023-05-29T07:23:24;14.00;99.90
47336;DHT22;33068;51.990;5.926;2023-05-29T07:25:52;14.30;99.90
47336;DHT22;33068;51.990;5.926;2023-05-29T07:28:21;14.30;99.90
47336;DHT22;33068;51.990;5.926;2023-05-29T07:30:48;14.40;99.90
47336;DHT22;33068;51.990;5.926;2023-05-29T07:33:16;14.10;99.90
47336;DHT22;33068;51.990;5.926;2023-05-29T07:35:44;14.30;99.90
47336;DHT22;33068;51.990;5.926;2023-05-29T07:38:11;14.70;99.90
47336;DHT22;33068;51.990;5.926;2023-05-29T07:40:40;15.00;99.90
47336;DHT22;33068;51.990;5.926;2023-05-29T07:43:12;15.10;99.90
47336;DHT22;33068;51.990;5.926;2023-05-29T07:45:50;15.20;99.90
47336;DHT22;33068;51.990;5.926;2023-05-29T07:48:17;15.10;99.90
47336;DHT22;33068;51.990;5.926;2023-05-29T07:50:46;15.40;99.70
47336;DHT22;33068;51.990;5.926;2023-05-29T07:53:15;15.40;99.60
47336;DHT22;33068;51.990;5.926;2023-05-29T07:55:42;15.60;99.50
47336;DHT22;33068;51.990;5.926;2023-05-29T07:58:09;15.70;98.70
47336;DHT22;33068;51.990;5.926;2023-05-29T08:00:37;15.60;99.20
47336;DHT22;33068;51.990;5.926;2023-05-29T08:03:07;15.80;98.50
47336;DHT22;33068;51.990;5.926;2023-05-29T08:05:52;16.30;98.20
47336;DHT22;33068;51.990;5.926;2023-05-29T08:08:20;17.00;96.50
47336;DHT22;33068;51.990;5.926;2023-05-29T08:10:48;17.40;95.70
47336;DHT22;33068;51.990;5.926;2023-05-29T08:13:15;17.80;95.00
47336;DHT22;33068;51.990;5.926;2023-05-29T08:15:43;17.90;94.30
47336;DHT22;33068;51.990;5.926;2023-05-29T08:18:12;17.80;94.10
47336;DHT22;33068;51.990;5.926;2023-05-29T08:20:39;18.20;93.40
47336;DHT22;33068;51.990;5.926;2023-05-29T08:23:06;18.40;93.10
47336;DHT22;33068;51.990;5.926;2023-05-29T08:25:33;18.40;92.50
47336;DHT22;33068;51.990;5.926;2023-05-29T08:28:01;18.40;92.70
47336;DHT22;33068;51.990;5.926;2023-05-29T08:30:28;18.10;93.10
47336;DHT22;33068;51.990;5.926;2023-05-29T08:32:55;17.80;93.40
47336;DHT22;33068;51.990;5.926;2023-05-29T08:35:23;17.70;93.90
47336;DHT22;33068;51.990;5.926;2023-05-29T08:37:51;17.90;94.10
47336;DHT22;33068;51.990;5.926;2023-05-29T08:40:19;17.80;94.00
47336;DHT22;33068;51.990;5.926;2023-05-29T08:42:49;17.80;93.40
47336;DHT22;33068;51.990;5.926;2023-05-29T08:45:19;18.10;93.30
47336;DHT22;33068;51.990;5.926;2023-05-29T08:47:51;18.10;92.70
47336;DHT22;33068;51.990;5.926;2023-05-29T08:50:19;18.00;93.00
47336;DHT22;33068;51.990;5.926;2023-05-29T08:52:48;17.90;92.80
47336;DHT22;33068;51.990;5.926;2023-05-29T08:55:15;18.00;92.50
47336;DHT22;33068;51.990;5.926;2023-05-29T08:57:43;18.20;93.10
47336;DHT22;33068;51.990;5.926;2023-05-29T09:00:12;18.30;93.00
47336;DHT22;33068;51.990;5.926;2023-05-29T09:02:39;18.50;91.70
47336;DHT22;33068;51.990;5.926;2023-05-29T09:05:07;18.60;91.80
47336;DHT22;33068;51.990;5.926;2023-05-29T09:07:35;18.40;91.80
47336;DHT22;33068;51.990;5.926;2023-05-29T09:10:06;18.40;91.90
47336;DHT22;33068;51.990;5.926;2023-05-29T09:12:34;18.30;92.10
47336;DHT22;33068;51.990;5.926;2023-05-29T09:15:02;18.60;92.30
47336;DHT22;33068;51.990;5.926;2023-05-29T09:17:30;18.60;92.10
47336;DHT22;33068;51.990;5.926;2023-05-29T09:19:58;18.70;91.80
47336;DHT22;33068;51.990;5.926;2023-05-29T09:22:26;18.60;91.10
47336;DHT22;33068;51.990;5.926;2023-05-29T09:24:54;18.80;91.80
47336;DHT22;33068;51.990;5.926;2023-05-29T09:27:23;18.80;91.70
47336;DHT22;33068;51.990;5.926;2023-05-29T09:29:50;18.90;92.00
47336;DHT22;33068;51.990;5.926;2023-05-29T09:32:18;19.20;91.30
47336;DHT22;33068;51.990;5.926;2023-05-29T09:34:46;19.20;91.40
47336;DHT22;33068;51.990;5.926;2023-05-29T09:37:13;19.00;91.60
47336;DHT22;33068;51.990;5.926;2023-05-29T09:39:47;19.10;91.20
47336;DHT22;33068;51.990;5.926;2023-05-29T09:42:14;19.00;91.80
47336;DHT22;33068;51.990;5.926;2023-05-29T09:44:44;19.40;91.50
47336;DHT22;33068;51.990;5.926;2023-05-29T09:47:14;19.50;91.00
47336;DHT22;33068;51.990;5.926;2023-05-29T09:49:43;19.50;90.50
47336;DHT22;33068;51.990;5.926;2023-05-29T09:52:12;18.90;91.90
47336;DHT22;33068;51.990;5.926;2023-05-29T09:54:41;18.80;91.60
47336;DHT22;33068;51.990;5.926;2023-05-29T09:57:12;19.10;90.70
47336;DHT22;33068;51.990;5.926;2023-05-29T09:59:42;19.00;91.30
47336;DHT22;33068;51.990;5.926;2023-05-29T10:02:17;19.00;91.50
47336;DHT22;33068;51.990;5.926;2023-05-29T10:04:45;19.20;91.20
47336;DHT22;33068;51.990;5.926;2023-05-29T10:07:19;19.40;91.00
47336;DHT22;33068;51.990;5.926;2023-05-29T10:09:49;19.50;91.20
47336;DHT22;33068;51.990;5.926;2023-05-29T10:12:20;19.50;90.90
47336;DHT22;33068;51.990;5.926;2023-05-29T10:14:49;19.70;90.90
47336;DHT22;33068;51.990;5.926;2023-05-29T10:17:19;20.10;90.70
47336;DHT22;33068;51.990;5.926;2023-05-29T10:19:50;20.00;90.20
47336;DHT22;33068;51.990;5.926;2023-05-29T10:22:20;20.10;90.10
47336;DHT22;33068;51.990;5.926;2023-05-29T10:24:48;19.90;89.50
47336;DHT22;33068;51.990;5.926;2023-05-29T10:27:16;20.10;89.50
47336;DHT22;33068;51.990;5.926;2023-05-29T10:29:52;20.10;89.00
47336;DHT22;33068;51.990;5.926;2023-05-29T10:32:23;19.90;88.70
47336;DHT22;33068;51.990;5.926;2023-05-29T10:34:57;20.40;88.30
47336;DHT22;33068;51.990;5.926;2023-05-29T10:37:32;20.10;88.10
47336;DHT22;33068;51.990;5.926;2023-05-29T10:40:04;20.20;88.90
47336;DHT22;33068;51.990;5.926;2023-05-29T10:42:41;20.50;88.20
47336;DHT22;33068;51.990;5.926;2023-05-29T10:45:11;20.80;85.80
47336;DHT22;33068;51.990;5.926;2023-05-29T10:48:39;20.40;87.40
47336;DHT22;33068;51.990;5.926;2023-05-29T10:51:07;20.40;86.40
47336;DHT22;33068;51.990;5.926;2023-05-29T10:53:35;20.00;85.60
47336;DHT22;33068;51.990;5.926;2023-05-29T10:56:13;19.80;85.80
47336;DHT22;33068;51.990;5.926;2023-05-29T10:58:41;19.80;85.20
47336;DHT22;33068;51.990;5.926;2023-05-29T11:01:09;19.80;85.20
47336;DHT22;33068;51.990;5.926;2023-05-29T11:03:37;19.90;86.80
47336;DHT22;33068;51.990;5.926;2023-05-29T11:06:05;20.00;86.80
47336;DHT22;33068;51.990;5.926;2023-05-29T11:08:34;19.90;85.90
47336;DHT22;33068;51.990;5.926;2023-05-29T11:11:03;20.10;85.00
47336;DHT22;33068;51.990;5.926;2023-05-29T11:13:33;20.10;84.80
47336;DHT22;33068;51.990;5.926;2023-05-29T11:16:12;19.80;86.00
47336;DHT22;33068;51.990;5.926;2023-05-29T11:18:43;19.60;86.50
47336;DHT22;33068;51.990;5.926;2023-05-29T11:21:31;19.90;86.40
47336;DHT22;33068;51.990;5.926;2023-05-29T11:24:01;20.00;85.10
47336;DHT22;33068;51.990;5.926;2023-05-29T11:26:30;20.20;83.90
47336;DHT22;33068;51.990;5.926;2023-05-29T11:28:59;20.20;84.20
47336;DHT22;33068;51.990;5.926;2023-05-29T11:31:29;20.00;85.50
47336;DHT22;33068;51.990;5.926;2023-05-29T11:33:59;19.80;85.80
47336;DHT22;33068;51.990;5.926;2023-05-29T11:36:28;20.20;84.40
47336;DHT22;33068;51.990;5.926;2023-05-29T11:38:56;20.40;83.30
47336;DHT22;33068;51.990;5.926;2023-05-29T11:41:23;20.30;84.30
47336;DHT22;33068;51.990;5.926;2023-05-29T11:43:58;20.50;85.00
47336;DHT22;33068;51.990;5.926;2023-05-29T11:46:29;20.80;84.00
47336;DHT22;33068;51.990;5.926;2023-05-29T11:48:58;20.90;83.20
47336;DHT22;33068;51.990;5.926;2023-05-29T11:51:26;20.80;85.00
47336;DHT22;33068;51.990;5.926;2023-05-29T11:53:53;21.00;84.00
47336;DHT22;33068;51.990;5.926;2023-05-29T11:56:24;21.00;83.70
47336;DHT22;33068;51.990;5.926;2023-05-29T11:58:52;21.00;82.90
47336;DHT22;33068;51.990;5.926;2023-05-29T12:01:23;20.70;82.60
47336;DHT22;33068;51.990;5.926;2023-05-29T12:03:53;20.30;83.70
47336;DHT22;33068;51.990;5.926;2023-05-29T12:06:33;20.50;83.60
47336;DHT22;33068;51.990;5.926;2023-05-29T12:09:01;20.40;81.40
47336;DHT22;33068;51.990;5.926;2023-05-29T12:11:29;20.50;82.40
47336;DHT22;33068;51.990;5.926;2023-05-29T12:13:57;20.30;83.60
47336;DHT22;33068;51.990;5.926;2023-05-29T12:16:26;20.50;83.30
47336;DHT22;33068;51.990;5.926;2023-05-29T12:18:55;20.70;82.50
47336;DHT22;33068;51.990;5.926;2023-05-29T12:21:22;20.80;82.80
47336;DHT22;33068;51.990;5.926;2023-05-29T12:23:52;21.10;84.00
47336;DHT22;33068;51.990;5.926;2023-05-29T12:26:22;21.00;82.40
47336;DHT22;33068;51.990;5.926;2023-05-29T12:28:50;21.10;83.30
47336;DHT22;33068;51.990;5.926;2023-05-29T12:31:27;21.40;81.80
47336;DHT22;33068;51.990;5.926;2023-05-29T12:34:00;21.40;81.20
47336;DHT22;33068;51.990;5.926;2023-05-29T12:36:28;21.10;80.60
47336;DHT22;33068;51.990;5.926;2023-05-29T12:38:57;21.10;80.60
47336;DHT22;33068;51.990;5.926;2023-05-29T12:41:27;21.30;79.90
47336;DHT22;33068;51.990;5.926;2023-05-29T12:43:55;21.20;79.80
47336;DHT22;33068;51.990;5.926;2023-05-29T12:46:23;21.10;79.90
47336;DHT22;33068;51.990;5.926;2023-05-29T12:48:53;21.00;81.50
47336;DHT22;33068;51.990;5.926;2023-05-29T12:51:26;21.10;81.00
47336;DHT22;33068;51.990;5.926;2023-05-29T12:53:53;21.10;79.70
47336;DHT22;33068;51.990;5.926;2023-05-29T12:56:21;21.10;79.90
47336;DHT22;33068;51.990;5.926;2023-05-29T12:58:50;21.10;82.30
47336;DHT22;33068;51.990;5.926;2023-05-29T13:01:17;21.20;79.30
47336;DHT22;33068;51.990;5.926;2023-05-29T13:03:46;21.00;79.60
47336;DHT22;33068;51.990;5.926;2023-05-29T13:06:13;20.70;80.00
47336;DHT22;33068;51.990;5.926;2023-05-29T13:08:42;20.90;79.70
47336;DHT22;33068;51.990;5.926;2023-05-29T13:11:09;20.80;78.90
47336;DHT22;33068;51.990;5.926;2023-05-29T13:13:36;20.50;77.40
47336;DHT22;33068;51.990;5.926;2023-05-29T13:16:03;20.90;78.60
47336;DHT22;33068;51.990;5.926;2023-05-29T13:18:30;20.90;79.40
47336;DHT22;33068;51.990;5.926;2023-05-29T13:20:59;20.90;80.50
47336;DHT22;33068;51.990;5.926;2023-05-29T13:23:26;21.40;79.50
47336;DHT22;33068;51.990;5.926;2023-05-29T13:25:54;21.70;77.20
47336;DHT22;33068;51.990;5.926;2023-05-29T13:28:21;21.90;76.90
47336;DHT22;33068;51.990;5.926;2023-05-29T13:30:49;22.10;76.50
47336;DHT22;33068;51.990;5.926;2023-05-29T13:33:16;22.00;77.50
47336;DHT22;33068;51.990;5.926;2023-05-29T13:35:43;22.10;77.50
47336;DHT22;33068;51.990;5.926;2023-05-29T13:38:10;22.00;75.40
47336;DHT22;33068;51.990;5.926;2023-05-29T13:40:38;21.70;76.50
47336;DHT22;33068;51.990;5.926;2023-05-29T13:43:06;21.60;75.20
47336;DHT22;33068;51.990;5.926;2023-05-29T13:45:33;21.90;75.30
47336;DHT22;33068;51.990;5.926;2023-05-29T13:48:00;22.10;75.00
47336;DHT22;33068;51.990;5.926;2023-05-29T13:50:27;22.10;74.90
47336;DHT22;33068;51.990;5.926;2023-05-29T13:52:54;22.20;75.30
47336;DHT22;33068;51.990;5.926;2023-05-29T13:55:21;22.30;73.10
47336;DHT22;33068;51.990;5.926;2023-05-29T13:57:48;22.60;72.00
47336;DHT22;33068;51.990;5.926;2023-05-29T14:00:18;22.70;73.10
47336;DHT22;33068;51.990;5.926;2023-05-29T14:02:45;22.70;74.80
47336;DHT22;33068;51.990;5.926;2023-05-29T14:05:12;22.80;73.60
47336;DHT22;33068;51.990;5.926;2023-05-29T14:07:39;22.60;72.50
47336;DHT22;33068;51.990;5.926;2023-05-29T14:10:06;22.50;72.70
47336;DHT22;33068;51.990;5.926;2023-05-29T14:12:34;22.50;73.80
47336;DHT22;33068;51.990;5.926;2023-05-29T14:15:01;22.50;71.60
47336;DHT22;33068;51.990;5.926;2023-05-29T14:17:29;22.70;70.00
47336;DHT22;33068;51.990;5.926;2023-05-29T14:19:56;22.70;70.70
47336;DHT22;33068;51.990;5.926;2023-05-29T14:22:24;22.90;70.40
47336;DHT22;33068;51.990;5.926;2023-05-29T14:24:51;22.80;71.30
47336;DHT22;33068;51.990;5.926;2023-05-29T14:27:18;22.50;71.60
47336;DHT22;33068;51.990;5.926;2023-05-29T14:29:45;22.70;70.60
47336;DHT22;33068;51.990;5.926;2023-05-29T14:32:12;23.10;71.00
47336;DHT22;33068;51.990;5.926;2023-05-29T14:34:41;22.90;71.00
47336;DHT22;33068;51.990;5.926;2023-05-29T14:37:08;23.10;70.20
47336;DHT22;33068;51.990;5.926;2023-05-29T14:39:35;23.20;69.80
47336;DHT22;33068;51.990;5.926;2023-05-29T14:42:02;23.20;71.70
47336;DHT22;33068;51.990;5.926;2023-05-29T14:44:29;23.20;70.80
47336;DHT22;33068;51.990;5.926;2023-05-29T14:46:56;23.50;71.80
47336;DHT22;33068;51.990;5.926;2023-05-29T14:49:23;23.60;71.70
47336;DHT22;33068;51.990;5.926;2023-05-29T14:51:55;23.90;69.80
47336;DHT22;33068;51.990;5.926;2023-05-29T14:54:22;23.70;70.40
47336;DHT22;33068;51.990;5.926;2023-05-29T14:56:49;23.80;70.60
47336;DHT22;33068;51.990;5.926;2023-05-29T14:59:16;23.90;70.90
47336;DHT22;33068;51.990;5.926;2023-05-29T15:01:44;23.80;71.20
47336;DHT22;33068;51.990;5.926;2023-05-29T15:04:11;23.50;68.60
47336;DHT22;33068;51.990;5.926;2023-05-29T15:06:38;23.40;69.20
47336;DHT22;33068;51.990;5.926;2023-05-29T15:09:06;23.20;70.50
47336;DHT22;33068;51.990;5.926;2023-05-29T15:11:33;23.50;70.00
47336;DHT22;33068;51.990;5.926;2023-05-29T15:14:00;23.70;69.50
47336;DHT22;33068;51.990;5.926;2023-05-29T15:16:27;23.30;69.20
47336;DHT22;33068;51.990;5.926;2023-05-29T15:18:54;23.10;69.00
47336;DHT22;33068;51.990;5.926;2023-05-29T15:21:22;23.60;69.80
47336;DHT22;33068;51.990;5.926;2023-05-29T15:23:49;23.90;68.50
47336;DHT22;33068;51.990;5.926;2023-05-29T15:26:18;23.90;67.60
47336;DHT22;33068;51.990;5.926;2023-05-29T15:28:45;23.80;67.50
47336;DHT22;33068;51.990;5.926;2023-05-29T15:31:12;23.90;67.80
47336;DHT22;33068;51.990;5.926;2023-05-29T15:33:40;24.30;67.00
47336;DHT22;33068;51.990;5.926;2023-05-29T15:36:08;24.70;65.90
47336;DHT22;33068;51.990;5.926;2023-05-29T15:38:35;24.60;66.70
47336;DHT22;33068;51.990;5.926;2023-05-29T15:41:02;24.00;67.10
47336;DHT22;33068;51.990;5.926;2023-05-29T15:43:31;24.00;66.60
47336;DHT22;33068;51.990;5.926;2023-05-29T15:45:58;24.30;67.00
47336;DHT22;33068;51.990;5.926;2023-05-29T15:48:25;24.50;66.70